createdAt,value
2019-02-01T00:02:23.182Z,16.30
2019-02-01T00:04:53.696Z,16.40
2019-02-01T00:07:23.995Z,17.33
2019-02-01T00:09:54.294Z,18.37
2019-02-01T00:12:24.540Z,17.37
2019-02-01T00:14:54.812Z,18.00
2019-02-01T00:17:25.046Z,17.27
2019-02-01T00:19:55.808Z,18.13
2019-02-01T00:22:26.454Z,18.57
2019-02-01T00:24:56.938Z,18.60
2019-02-01T00:27:27.384Z,18.53
2019-02-01T00:29:57.892Z,20.07
2019-02-01T00:32:28.176Z,19.30
2019-02-01T00:34:58.452Z,19.30
2019-02-01T00:37:28.653Z,19.47
2019-02-01T00:39:59.303Z,19.37
2019-02-01T00:42:29.654Z,18.87
2019-02-01T00:45:00.396Z,19.53
2019-02-01T00:47:30.632Z,19.53
2019-02-01T00:50:00.891Z,21.03
2019-02-01T00:52:31.130Z,21.03
2019-02-01T00:55:01.521Z,21.27
2019-02-01T00:57:31.737Z,21.47
2019-02-01T01:00:01.987Z,21.70
2019-02-01T01:02:32.199Z,22.17
2019-02-01T01:05:02.457Z,23.93
2019-02-01T01:07:33.154Z,24.20
2019-02-01T01:10:03.533Z,24.27
2019-02-01T01:12:33.784Z,24.53
2019-02-01T01:15:04.905Z,24.57
2019-02-01T01:17:35.157Z,26.40
2019-02-01T01:20:07.327Z,26.57
2019-02-01T01:22:37.527Z,26.40
2019-02-01T01:25:08.641Z,27.20
2019-02-01T01:27:39.088Z,27.63
2019-02-01T01:30:13.190Z,26.80
2019-02-01T01:32:44.535Z,25.83
2019-02-01T01:35:15.497Z,26.73
2019-02-01T01:37:46.428Z,25.73
2019-02-01T01:40:18.059Z,28.13
2019-02-01T01:42:48.427Z,28.93
2019-02-01T01:45:21.012Z,28.63
2019-02-01T01:47:51.415Z,28.43
2019-02-01T01:50:22.210Z,28.20
2019-02-01T01:52:52.551Z,29.80
2019-02-01T01:55:23.416Z,29.13
2019-02-01T01:57:54.018Z,28.67
2019-02-01T02:00:26.670Z,30.77
2019-02-01T02:02:56.997Z,28.53
2019-02-01T02:05:27.868Z,27.47
2019-02-01T02:07:58.351Z,28.07
2019-02-01T02:10:28.632Z,28.30
2019-02-01T02:12:58.844Z,26.70
2019-02-01T02:15:29.312Z,26.80
2019-02-01T02:17:59.956Z,26.07
2019-02-01T02:20:30.442Z,25.10
2019-02-01T02:23:01.310Z,25.63
2019-02-01T02:25:31.676Z,23.60
2019-02-01T02:28:02.249Z,23.97
2019-02-01T02:30:32.445Z,25.00
2019-02-01T02:33:02.763Z,25.23
2019-02-01T02:35:32.959Z,26.07
2019-02-01T02:38:03.198Z,29.17
2019-02-01T02:40:33.787Z,28.87
2019-02-01T02:43:04.043Z,30.07
2019-02-01T02:45:34.300Z,29.70
2019-02-01T02:48:04.851Z,28.80
2019-02-01T02:50:35.072Z,27.93
2019-02-01T02:53:05.262Z,27.67
2019-02-01T02:55:35.576Z,29.77
2019-02-01T02:58:05.959Z,29.73
2019-02-01T03:00:36.198Z,28.87
2019-02-01T03:03:06.401Z,28.33
2019-02-01T03:08:14.818Z,31.47
2019-02-01T03:10:45.085Z,31.90
2019-02-01T03:13:15.269Z,30.47
2019-02-01T03:15:45.504Z,30.63
2019-02-01T03:18:15.765Z,31.37
2019-02-01T03:20:46.361Z,31.20
2019-02-01T03:23:16.622Z,30.60
2019-02-01T03:25:46.950Z,31.50
2019-02-01T03:28:17.107Z,30.87
2019-02-01T03:30:47.330Z,30.13
2019-02-01T03:33:17.564Z,32.23
2019-02-01T03:35:47.791Z,31.60
2019-02-01T03:38:18.050Z,31.67
2019-02-01T03:40:48.536Z,31.53
2019-02-01T03:43:18.889Z,32.87
2019-02-01T03:45:49.117Z,32.07
2019-02-01T03:48:19.762Z,30.73
2019-02-01T03:50:49.960Z,28.30
2019-02-01T03:53:20.205Z,29.80
2019-02-01T03:55:50.432Z,30.00
2019-02-01T03:58:20.678Z,30.27
2019-02-01T04:00:56.867Z,29.30
2019-02-01T04:03:27.183Z,27.93
2019-02-01T04:05:57.338Z,28.67
2019-02-01T04:08:27.474Z,28.73
2019-02-01T04:10:57.634Z,27.20
2019-02-01T04:13:27.830Z,27.20
2019-02-01T04:15:58.182Z,28.27
2019-02-01T04:18:28.436Z,27.90
2019-02-01T04:20:59.045Z,27.47
2019-02-01T04:23:29.286Z,26.30
2019-02-01T04:25:59.503Z,27.57
2019-02-01T04:28:29.790Z,26.77
2019-02-01T04:31:00.308Z,25.93
2019-02-01T04:33:31.203Z,27.90
2019-02-01T04:36:01.789Z,28.10
2019-02-01T04:38:31.958Z,28.57
2019-02-01T04:41:02.500Z,26.63
2019-02-01T04:43:33.280Z,26.63
2019-02-01T04:46:03.824Z,27.40
2019-02-01T04:48:34.016Z,25.37
2019-02-01T04:51:04.270Z,25.80
2019-02-01T04:53:34.558Z,27.67
2019-02-01T04:56:04.755Z,26.57
2019-02-01T04:58:35.287Z,26.40
2019-02-01T05:01:05.552Z,26.00
2019-02-01T05:03:35.840Z,25.33
2019-02-01T05:06:06.271Z,24.07
2019-02-01T05:08:36.839Z,24.73
2019-02-01T05:11:07.117Z,24.97
2019-02-01T05:13:37.666Z,22.57
2019-02-01T05:16:07.889Z,24.73
2019-02-01T05:18:39.163Z,25.40
2019-02-01T05:21:10.661Z,23.53
2019-02-01T05:23:41.254Z,25.03
2019-02-01T05:26:11.627Z,26.77
2019-02-01T05:28:41.851Z,28.37
2019-02-01T05:31:12.361Z,29.10
2019-02-01T05:33:42.581Z,30.10
2019-02-01T05:36:13.347Z,30.47
2019-02-01T05:38:43.862Z,28.73
2019-02-01T05:41:14.140Z,28.10
2019-02-01T05:43:44.433Z,30.73
2019-02-01T05:46:14.972Z,31.20
2019-02-01T05:48:45.099Z,29.67
2019-02-01T05:51:15.323Z,31.07
2019-02-01T05:53:45.634Z,32.17
2019-02-01T05:56:15.836Z,32.30
2019-02-01T05:58:46.097Z,32.70
2019-02-01T06:01:16.297Z,33.27
2019-02-01T06:03:46.462Z,34.47
2019-02-01T06:06:16.645Z,34.23
2019-02-01T06:08:47.150Z,34.87
2019-02-01T06:11:17.422Z,35.10
2019-02-01T06:13:47.952Z,34.63
2019-02-01T06:16:18.138Z,34.60
2019-02-01T06:18:48.358Z,34.83
2019-02-01T06:21:19.276Z,34.07
2019-02-01T06:23:49.926Z,36.67
2019-02-01T06:26:20.263Z,35.17
2019-02-01T06:28:50.514Z,35.57
2019-02-01T06:31:22.791Z,34.57
2019-02-01T06:33:52.934Z,36.73
2019-02-01T06:36:23.539Z,34.40
2019-02-01T06:38:53.864Z,35.20
2019-02-01T06:41:24.010Z,36.50
2019-02-01T06:43:54.604Z,35.77
2019-02-01T06:46:24.854Z,36.87
2019-02-01T06:48:55.423Z,36.87
2019-02-01T06:51:29.106Z,37.07
2019-02-01T06:53:59.525Z,37.27
2019-02-01T06:56:30.349Z,36.47
2019-02-01T06:59:00.559Z,36.33
2019-02-01T07:01:30.787Z,36.43
2019-02-01T07:04:22.801Z,35.53
2019-02-01T07:07:11.971Z,32.97
2019-02-01T07:09:57.438Z,32.87
2019-02-01T07:12:33.792Z,34.63
2019-02-01T07:15:30.705Z,34.40
2019-02-01T07:18:19.241Z,35.87
2019-02-01T07:21:20.523Z,37.43
2019-02-01T07:24:12.511Z,36.13
2019-02-01T07:26:49.691Z,35.57
2019-02-01T07:29:27.089Z,36.00
2019-02-01T07:32:19.291Z,36.97
2019-02-01T07:34:49.809Z,35.83
2019-02-01T07:37:19.993Z,33.93
2019-02-01T07:39:50.689Z,36.27
2019-02-01T07:42:20.909Z,34.53
2019-02-01T07:44:51.167Z,34.30
2019-02-01T07:47:21.357Z,34.40
2019-02-01T07:49:51.697Z,34.93
2019-02-01T07:52:21.955Z,36.13
2019-02-01T07:54:52.487Z,37.77
2019-02-01T07:57:22.769Z,38.37
2019-02-01T07:59:53.103Z,39.70
2019-02-01T08:02:23.690Z,37.10
2019-02-01T08:04:53.909Z,38.63
2019-02-01T08:07:24.228Z,40.60
2019-02-01T08:09:54.462Z,39.43
2019-02-01T08:12:24.715Z,37.73
2019-02-01T08:14:55.067Z,39.30
2019-02-01T08:17:25.550Z,39.27
2019-02-01T08:19:55.872Z,38.87
2019-02-01T08:22:26.445Z,40.07
2019-02-01T08:24:57.364Z,42.33
2019-02-01T08:27:27.716Z,41.67
2019-02-01T08:29:57.958Z,41.97
2019-02-01T08:32:28.198Z,42.60
2019-02-01T08:34:58.888Z,43.63
2019-02-01T08:37:29.116Z,45.00
2019-02-01T08:39:59.336Z,44.37
2019-02-01T08:42:29.669Z,45.43
2019-02-01T08:45:00.252Z,43.20
2019-02-01T08:47:30.451Z,42.93
2019-02-01T08:50:00.950Z,44.57
2019-02-01T08:52:31.204Z,43.40
2019-02-01T08:55:01.504Z,42.43
2019-02-01T08:57:32.025Z,43.07
2019-02-01T09:00:02.503Z,43.40
2019-02-01T09:02:32.759Z,43.87
2019-02-01T09:05:02.907Z,43.57
2019-02-01T09:07:33.533Z,44.50
2019-02-01T09:10:05.575Z,42.63
2019-02-01T09:12:35.948Z,41.70
2019-02-01T09:15:07.411Z,42.00
2019-02-01T09:17:37.990Z,41.50
2019-02-01T09:20:10.041Z,39.83
2019-02-01T09:22:40.637Z,38.43
2019-02-01T09:25:11.084Z,37.83
2019-02-01T09:27:41.561Z,40.37
2019-02-01T09:30:17.212Z,40.87
2019-02-01T09:32:47.742Z,40.67
2019-02-01T09:35:18.264Z,42.23
2019-02-01T09:37:48.585Z,40.50
2019-02-01T09:40:20.623Z,39.50
2019-02-01T09:42:50.804Z,42.00
2019-02-01T09:45:21.791Z,39.63
2019-02-01T09:47:52.325Z,38.20
2019-02-01T09:50:22.481Z,39.47
2019-02-01T09:52:52.977Z,38.97
2019-02-01T09:55:23.216Z,39.73
2019-02-01T09:57:53.450Z,36.83
2019-02-01T10:00:24.077Z,37.30
2019-02-01T10:02:56.514Z,36.57
2019-02-01T10:05:26.733Z,36.00
2019-02-01T10:07:56.869Z,34.43
2019-02-01T10:10:27.568Z,35.10
2019-02-01T10:12:57.798Z,34.93
2019-02-01T10:15:28.138Z,34.47
2019-02-01T10:17:59.166Z,32.83
2019-02-01T10:20:29.408Z,31.60
2019-02-01T10:22:59.984Z,30.03
2019-02-01T10:25:30.222Z,30.23
2019-02-01T10:28:00.426Z,31.23
2019-02-01T10:30:30.783Z,33.13
2019-02-01T10:33:01.210Z,31.73
2019-02-01T10:35:31.879Z,32.43
2019-02-01T10:38:02.065Z,31.37
2019-02-01T10:40:32.268Z,29.07
2019-02-01T10:43:02.854Z,29.90
2019-02-01T10:45:33.131Z,29.97
2019-02-01T10:48:03.394Z,28.17
2019-02-01T10:50:33.652Z,26.17
2019-02-01T10:53:04.743Z,25.20
2019-02-01T10:55:35.626Z,25.47
2019-02-01T10:58:06.350Z,24.90
2019-02-01T11:00:37.148Z,24.43
2019-02-01T11:03:07.417Z,25.03
2019-02-01T11:05:38.467Z,23.17
2019-02-01T11:08:08.908Z,24.87
2019-02-01T11:10:39.137Z,22.87
2019-02-01T11:13:10.283Z,21.57
2019-02-01T11:15:40.623Z,23.57
2019-02-01T11:18:10.868Z,22.47
2019-02-01T11:20:41.580Z,23.57
2019-02-01T11:23:11.879Z,24.57
2019-02-01T11:25:42.111Z,24.50
2019-02-01T11:28:12.411Z,22.77
2019-02-01T11:30:43.073Z,21.70
2019-02-01T11:33:13.331Z,23.50
2019-02-01T11:35:43.566Z,22.80
2019-02-01T11:38:13.829Z,24.03
2019-02-01T11:40:44.159Z,22.93
2019-02-01T11:43:14.410Z,23.77
2019-02-01T11:45:44.663Z,22.30
2019-02-01T11:48:15.188Z,23.60
2019-02-01T11:50:45.808Z,22.73
2019-02-01T11:53:16.102Z,23.20
2019-02-01T11:55:46.402Z,23.47
2019-02-01T11:58:16.643Z,23.23
2019-02-01T12:00:46.908Z,24.37
2019-02-01T12:03:17.245Z,24.60
2019-02-01T12:05:47.486Z,23.03
2019-02-01T12:08:17.715Z,23.23
2019-02-01T12:10:47.905Z,23.00
2019-02-01T12:13:18.538Z,22.73
2019-02-01T12:15:49.673Z,22.60
2019-02-01T12:18:20.353Z,20.47
2019-02-01T12:20:50.530Z,20.67
2019-02-01T12:23:21.183Z,21.57
2019-02-01T12:25:51.413Z,21.40
2019-02-01T12:28:21.634Z,20.97
2019-02-01T12:30:51.846Z,19.13
2019-02-01T12:33:22.098Z,22.03
2019-02-01T12:35:52.327Z,22.60
2019-02-01T12:38:23.168Z,21.83
2019-02-01T12:40:53.544Z,21.77
2019-02-01T12:43:23.690Z,20.80
2019-02-01T12:45:54.449Z,20.90
2019-02-01T12:48:24.638Z,20.67
2019-02-01T12:50:54.932Z,19.93
2019-02-01T12:53:25.185Z,21.30
2019-02-01T12:55:55.786Z,21.17
2019-02-01T12:58:25.999Z,20.63
2019-02-01T13:00:56.296Z,21.57
2019-02-01T13:03:26.616Z,21.00
2019-02-01T13:05:56.890Z,18.80
2019-02-01T13:08:27.043Z,20.27
2019-02-01T13:10:57.282Z,19.60
2019-02-01T13:13:27.530Z,23.03
2019-02-01T13:15:58.069Z,23.43
2019-02-01T13:18:28.707Z,22.40
2019-02-01T13:20:59.724Z,20.13
2019-02-01T13:23:29.986Z,19.50
2019-02-01T13:26:00.300Z,20.20
2019-02-01T13:28:30.484Z,20.37
2019-02-01T13:31:01.178Z,18.67
2019-02-01T13:33:31.425Z,18.43
2019-02-01T13:36:01.653Z,18.80
2019-02-01T13:38:31.905Z,18.93
2019-02-01T13:41:03.247Z,17.60
2019-02-01T13:43:33.464Z,18.33
2019-02-01T13:46:03.698Z,17.43
2019-02-01T13:48:34.262Z,18.50
2019-02-01T13:51:04.598Z,17.80
2019-02-01T13:53:35.534Z,17.70
2019-02-01T13:56:05.881Z,18.57
2019-02-01T13:58:36.875Z,20.07
2019-02-01T14:01:08.557Z,20.53
2019-02-01T14:03:38.803Z,20.47
2019-02-01T14:06:09.765Z,20.40
2019-02-01T14:08:40.069Z,17.33
2019-02-01T14:11:10.517Z,19.87
2019-02-01T14:13:42.675Z,16.67
2019-02-01T14:16:13.005Z,14.00
2019-02-01T14:18:43.629Z,14.47
2019-02-01T14:21:13.934Z,14.57
2019-02-01T14:23:47.082Z,15.13
2019-02-01T14:26:17.714Z,13.00
2019-02-01T14:28:47.968Z,15.30
2019-02-01T14:31:18.323Z,15.90
2019-02-01T14:33:49.357Z,14.23
2019-02-01T14:36:20.631Z,12.63
2019-02-01T14:38:50.887Z,15.17
2019-02-01T14:41:21.124Z,15.73
2019-02-01T14:43:51.414Z,16.23
2019-02-01T14:46:21.693Z,15.93
2019-02-01T14:48:52.602Z,16.50
2019-02-01T14:51:23.285Z,15.50
2019-02-01T14:53:58.637Z,14.10
2019-02-01T14:56:25.402Z,14.83
2019-02-01T14:58:55.671Z,15.23
2019-02-01T15:01:26.178Z,16.87
2019-02-01T15:03:56.388Z,15.27
2019-02-01T15:06:27.082Z,14.43
2019-02-01T15:08:58.093Z,13.70
2019-02-01T15:11:28.371Z,13.20
2019-02-01T15:13:58.921Z,15.40
2019-02-01T15:16:38.517Z,14.83
2019-02-01T15:19:01.389Z,14.73
2019-02-01T15:21:31.533Z,12.93
2019-02-01T15:24:09.540Z,14.40
2019-02-01T15:26:34.023Z,13.20
2019-02-01T15:29:04.766Z,11.37
2019-02-01T15:31:35.029Z,13.67
2019-02-01T15:34:07.374Z,13.50
2019-02-01T15:36:38.242Z,12.53
2019-02-01T15:39:10.324Z,12.13
2019-02-01T15:41:40.661Z,13.53
2019-02-01T15:44:10.967Z,13.67
2019-02-01T15:46:41.544Z,14.40
2019-02-01T15:49:11.841Z,18.00
2019-02-01T15:51:42.063Z,25.97
2019-02-01T15:54:22.225Z,20.77
2019-02-01T15:56:44.877Z,20.73
2019-02-01T15:59:15.107Z,17.40
2019-02-01T16:01:45.669Z,16.23
2019-02-01T16:04:16.193Z,16.33
2019-02-01T16:06:46.593Z,14.70
2019-02-01T16:09:19.652Z,13.90
2019-02-01T16:11:48.936Z,14.90
2019-02-01T16:14:19.216Z,14.43
2019-02-01T16:16:49.588Z,13.70
2019-02-01T16:19:19.858Z,14.37
2019-02-01T16:21:52.655Z,12.43
2019-02-01T16:24:32.735Z,19.90
2019-02-01T16:26:55.242Z,15.83
2019-02-01T16:29:25.493Z,20.37
2019-02-01T16:31:55.744Z,18.73
2019-02-01T16:34:26.087Z,20.27
2019-02-01T16:36:56.293Z,18.77
2019-02-01T16:39:26.474Z,18.37
2019-02-01T16:41:56.687Z,17.53
2019-02-01T16:44:27.243Z,16.43
2019-02-01T16:46:58.075Z,15.43
2019-02-01T16:49:28.407Z,15.10
2019-02-01T16:51:58.678Z,16.67
2019-02-01T16:54:28.896Z,17.60
2019-02-01T16:56:59.246Z,17.07
2019-02-01T16:59:32.079Z,15.60
2019-02-01T17:02:02.443Z,15.03
2019-02-01T17:04:32.949Z,14.43
2019-02-01T17:07:03.425Z,13.30
2019-02-01T17:09:33.706Z,16.57
2019-02-01T17:12:04.250Z,17.97
2019-02-01T17:14:34.489Z,18.53
2019-02-01T17:17:05.287Z,17.73
2019-02-01T17:19:35.549Z,16.43
2019-02-01T17:22:05.782Z,14.20
2019-02-01T17:24:36.341Z,16.27
2019-02-01T17:27:06.562Z,14.80
2019-02-01T17:29:36.853Z,14.73
2019-02-01T17:32:07.038Z,15.73
2019-02-01T17:34:37.890Z,16.10
2019-02-01T17:37:08.151Z,16.03
2019-02-01T17:39:39.058Z,14.33
2019-02-01T17:42:09.270Z,15.77
2019-02-01T17:44:39.631Z,14.73
2019-02-01T17:47:10.684Z,14.73
2019-02-01T17:49:40.973Z,14.73
2019-02-01T17:52:11.213Z,14.03
2019-02-01T17:54:41.458Z,15.17
2019-02-01T17:57:11.709Z,16.60
2019-02-01T17:59:41.933Z,16.13
2019-02-01T18:02:12.599Z,17.10
2019-02-01T18:04:42.893Z,17.40
2019-02-01T18:07:13.066Z,15.33
2019-02-01T18:09:43.821Z,16.30
2019-02-01T18:12:14.033Z,15.53
2019-02-01T18:14:44.689Z,16.60
2019-02-01T18:17:15.228Z,15.97
2019-02-01T18:19:45.494Z,15.77
2019-02-01T18:22:16.077Z,18.13
2019-02-01T18:24:46.383Z,18.03
2019-02-01T18:27:16.602Z,17.33
2019-02-01T18:29:46.899Z,18.73
2019-02-01T18:32:17.075Z,19.43
2019-02-01T18:34:47.317Z,20.90
2019-02-01T18:37:17.515Z,22.50
2019-02-01T18:39:48.136Z,22.43
2019-02-01T18:42:18.383Z,21.53
2019-02-01T18:44:48.664Z,21.07
2019-02-01T18:47:18.896Z,18.90
2019-02-01T18:49:48.993Z,19.40
2019-02-01T18:52:19.158Z,17.87
2019-02-01T18:54:50.069Z,18.40
2019-02-01T18:57:20.392Z,17.60
2019-02-01T18:59:50.943Z,17.97
2019-02-01T19:02:21.143Z,16.77
2019-02-01T19:04:51.739Z,17.47
2019-02-01T19:07:22.017Z,23.97
2019-02-01T19:09:52.608Z,21.43
2019-02-01T19:12:23.196Z,20.53
2019-02-01T19:14:53.467Z,20.80
2019-02-01T19:17:23.577Z,22.93
2019-02-01T19:19:53.814Z,22.50
2019-02-01T19:22:24.036Z,18.73
2019-02-01T19:24:54.524Z,17.23
2019-02-01T19:27:24.740Z,20.37
2019-02-01T19:29:55.140Z,19.17
2019-02-01T19:32:25.841Z,19.00
2019-02-01T19:34:56.109Z,20.10
2019-02-01T19:37:26.314Z,20.53
2019-02-01T19:39:59.587Z,19.53
2019-02-01T19:42:28.767Z,20.17
2019-02-01T19:44:59.464Z,18.30
2019-02-01T19:47:29.719Z,19.10
2019-02-01T19:49:59.966Z,17.20
2019-02-01T19:52:30.129Z,15.53
2019-02-01T19:55:00.385Z,16.33
2019-02-01T19:57:30.676Z,15.03
2019-02-01T20:00:01.199Z,17.13
2019-02-01T20:02:31.421Z,15.97
2019-02-01T20:05:02.077Z,16.20
2019-02-01T20:07:32.307Z,16.47
2019-02-01T20:10:02.904Z,16.23
2019-02-01T20:12:33.449Z,14.53
2019-02-01T20:15:03.638Z,15.00
2019-02-01T20:17:33.831Z,13.57
2019-02-01T20:20:04.977Z,13.00
2019-02-01T20:22:35.551Z,12.50
2019-02-01T20:25:06.130Z,12.70
2019-02-01T20:27:36.702Z,13.53
2019-02-01T20:30:22.561Z,12.60
2019-02-01T20:32:44.847Z,12.97
2019-02-01T20:35:16.392Z,14.47
2019-02-01T20:37:46.638Z,13.67
2019-02-01T20:40:23.065Z,14.23
2019-02-01T20:42:53.467Z,14.27
2019-02-01T20:45:23.915Z,13.43
2019-02-01T20:47:54.252Z,13.80
2019-02-01T20:50:24.989Z,13.70
2019-02-01T20:52:55.559Z,13.53
2019-02-01T20:55:25.795Z,13.23
2019-02-01T20:57:56.559Z,12.53
2019-02-01T21:00:27.405Z,14.13
2019-02-01T21:02:58.206Z,13.10
2019-02-01T21:05:30.265Z,12.30
2019-02-01T21:08:00.603Z,12.37
2019-02-01T21:10:30.966Z,11.53
2019-02-01T21:13:13.570Z,10.70
2019-02-01T21:15:33.507Z,11.57
2019-02-01T21:18:03.704Z,11.83
2019-02-01T21:20:33.968Z,11.53
2019-02-01T21:23:04.584Z,11.87
2019-02-01T21:25:34.772Z,12.97
2019-02-01T21:28:04.984Z,13.43
2019-02-01T21:30:36.309Z,15.83
2019-02-01T21:33:07.131Z,15.23
2019-02-01T21:35:37.440Z,16.27
2019-02-01T21:38:07.656Z,17.57
2019-02-01T21:40:38.299Z,16.33
2019-02-01T21:43:08.574Z,20.77
2019-02-01T21:45:39.140Z,21.10
2019-02-01T21:48:10.374Z,21.60
2019-02-01T21:50:41.352Z,20.93
2019-02-01T21:53:11.542Z,22.47
2019-02-01T21:55:42.070Z,21.33
2019-02-01T21:58:12.241Z,25.67
2019-02-01T22:00:42.480Z,23.07
2019-02-01T22:03:12.752Z,22.27
2019-02-01T22:05:43.865Z,25.07
2019-02-01T22:08:14.088Z,27.23
2019-02-01T22:10:44.292Z,25.80
2019-02-01T22:13:14.858Z,25.77
2019-02-01T22:15:45.804Z,27.03
2019-02-01T22:18:16.049Z,27.97
2019-02-01T22:20:46.356Z,28.30
2019-02-01T22:23:16.583Z,27.80
2019-02-01T22:25:46.802Z,29.90
2019-02-01T22:28:17.093Z,29.63
2019-02-01T22:30:47.310Z,30.07
2019-02-01T22:33:17.445Z,28.67
2019-02-01T22:35:48.068Z,30.97
2019-02-01T22:38:29.465Z,28.30
2019-02-01T22:40:50.744Z,28.07
2019-02-01T22:43:21.437Z,29.33
2019-02-01T22:45:51.635Z,28.53
2019-02-01T22:48:21.817Z,30.60
2019-02-01T22:50:52.065Z,29.73
2019-02-01T22:53:22.239Z,30.47
2019-02-01T22:55:52.561Z,29.40
2019-02-01T22:58:23.152Z,29.13
2019-02-01T23:01:53.835Z,29.17
2019-02-01T23:04:35.431Z,29.93
2019-02-01T23:07:05.814Z,29.27
2019-02-01T23:09:36.073Z,29.20
2019-02-01T23:12:07.326Z,27.33
2019-02-01T23:14:37.799Z,28.60
2019-02-01T23:17:08.436Z,28.47
2019-02-01T23:19:38.749Z,28.50
2019-02-01T23:22:09.354Z,29.87
2019-02-01T23:24:39.556Z,27.23
2019-02-01T23:27:17.786Z,27.90
2019-02-01T23:29:42.886Z,29.00
2019-02-01T23:32:13.102Z,28.37
2019-02-01T23:34:43.280Z,27.43
2019-02-01T23:37:14.523Z,28.20
2019-02-01T23:39:44.798Z,27.53
2019-02-01T23:42:15.068Z,27.60
2019-02-01T23:44:45.609Z,27.97
2019-02-01T23:47:15.832Z,27.27
2019-02-01T23:49:46.154Z,27.30
2019-02-01T23:52:16.712Z,25.87
2019-02-01T23:54:47.354Z,28.47
2019-02-01T23:57:29.103Z,26.67
2019-02-01T23:59:49.514Z,27.17
